Time;durP1;ratioP1;P1;durP2;ratioP2;P2;SDS_P1;SDS_P2;PMS_P1;PMS_P2;Temp;Humidity;BMP_temperature;BMP_pressure;BME280_temperature;BME280_humidity;BME280_pressure;Samples;Min_cycle;Max_cycle;Signal;HPM_P1;HPM_P2
2022/05/19 00:00:16;;;;;;;;;;;;;;;13.18;100.00;96316.16;1023077;29;19907;-67
2022/05/19 00:01:01;;;;;;;;;;;;;;;13.16;100.00;96313.00;1025062;28;19910;-69
2022/05/19 00:01:31;;;;;;;;;;;;;;;13.16;100.00;96314.84;1025666;28;19921;-69
2022/05/19 00:02:02;;;;;;;;;;;;;;;13.16;100.00;96310.34;1030964;28;20606;-68
2022/05/19 00:02:32;;;;;;;;;;;;;;;13.16;100.00;96306.94;1033404;28;20376;-69
2022/05/19 00:03:03;;;;;;;;;;;;;;;13.19;100.00;96301.13;1032509;28;19920;-69
2022/05/19 00:03:35;;;;;;;;;;;;;;;13.20;100.00;96310.63;1035658;28;19964;-68
2022/05/19 00:04:06;;;;;;;;;;;;;;;13.18;100.00;96305.63;1036511;28;19949;-69
2022/05/19 00:04:36;;;;;;;;;;;;;;;13.20;100.00;96302.72;1039863;28;20306;-67
2022/05/19 00:05:07;;;;;;;;;;;;;;;13.20;100.00;96303.50;1036051;28;19973;-69
2022/05/19 00:05:37;;;;;;;;;;;;;;;13.24;100.00;96302.97;1035747;28;19913;-69
2022/05/19 00:06:08;;;;;;;;;;;;;;;13.22;100.00;96308.53;1036083;28;19917;-69
2022/05/19 00:06:38;;;;;;;;;;;;;;;13.19;100.00;96303.78;1035234;28;19917;-69
2022/05/19 00:07:09;;;;;;;;;;;;;;;13.15;100.00;96311.41;1031292;28;19949;-69
2022/05/19 00:07:39;;;;;;;;;;;;;;;13.13;100.00;96310.09;1034969;28;19922;-69
2022/05/19 00:08:09;;;;;;;;;;;;;;;13.17;100.00;96303.25;1034637;28;19925;-69
2022/05/19 00:08:39;;;;;;;;;;;;;;;13.20;100.00;96307.97;1035255;28;19924;-68
2022/05/19 00:09:10;;;;;;;;;;;;;;;13.17;100.00;96304.03;1035381;28;20653;-71
2022/05/19 00:09:40;;;;;;;;;;;;;;;13.17;100.00;96308.50;1034376;28;19917;-67
2022/05/19 00:10:10;;;;;;;;;;;;;;;13.16;100.00;96304.31;1035061;28;20052;-68
2022/05/19 00:10:41;;;;;;;;;;;;;;;13.15;100.00;96305.38;1030897;28;19929;-69
2022/05/19 00:11:12;;;;;;;;;;;;;;;13.13;100.00;96308.25;1027169;28;20576;-69
2022/05/19 00:11:42;;;;;;;;;;;;;;;13.13;100.00;96307.47;1028078;28;20737;-69
2022/05/19 00:12:14;;;;;;;;;;;;;;;13.08;100.00;96303.00;1027340;28;19938;-69
2022/05/19 00:12:44;;;;;;;;;;;;;;;13.09;100.00;96306.41;1026950;28;19953;-69
2022/05/19 00:13:14;;;;;;;;;;;;;;;13.07;100.00;96308.50;1028588;28;19922;-70
2022/05/19 00:13:45;;;;;;;;;;;;;;;13.07;100.00;96308.50;1031070;28;20532;-71
2022/05/19 00:14:15;;;;;;;;;;;;;;;13.03;100.00;96302.19;1030965;28;19941;-69
2022/05/19 00:14:45;;;;;;;;;;;;;;;13.01;100.00;96310.38;1031181;28;20378;-70
2022/05/19 00:15:15;;;;;;;;;;;;;;;13.01;100.00;96306.94;1035140;28;19921;-69
2022/05/19 00:15:47;;;;;;;;;;;;;;;13.00;100.00;96302.72;1035214;28;19926;-69
2022/05/19 00:16:17;;;;;;;;;;;;;;;12.97;100.00;96309.31;1034962;28;20560;-68
2022/05/19 00:16:48;;;;;;;;;;;;;;;12.94;100.00;96308.00;1035251;28;19921;-69
2022/05/19 00:17:19;;;;;;;;;;;;;;;12.94;100.00;96310.63;1039265;28;19973;-68
2022/05/19 00:17:50;;;;;;;;;;;;;;;12.94;100.00;96308.00;1035118;28;19918;-69
2022/05/19 00:18:20;;;;;;;;;;;;;;;12.91;100.00;96313.78;1030571;28;19922;-69
2022/05/19 00:18:50;;;;;;;;;;;;;;;12.90;100.00;96308.78;1031128;28;19926;-67
2022/05/19 00:19:20;;;;;;;;;;;;;;;12.90;100.00;96308.78;1026803;28;19926;-68
2022/05/19 00:19:51;;;;;;;;;;;;;;;12.87;100.00;96304.81;1030318;28;19983;-69
2022/05/19 00:20:21;;;;;;;;;;;;;;;12.86;100.00;96305.88;1030717;28;20411;-69
2022/05/19 00:20:51;;;;;;;;;;;;;;;12.69;100.00;96281.66;1031063;28;19922;-68
2022/05/19 00:21:22;;;;;;;;;;;;;;;12.82;100.00;96310.09;1031743;28;19918;-69
2022/05/19 00:21:52;;;;;;;;;;;;;;;12.81;100.00;96305.88;1033566;28;19917;-69
2022/05/19 00:22:22;;;;;;;;;;;;;;;12.79;100.00;96315.88;1034732;28;20024;-69
2022/05/19 00:22:56;;;;;;;;;;;;;;;12.75;100.00;96309.56;1027507;28;19918;-69
2022/05/19 00:23:26;;;;;;;;;;;;;;;12.72;100.00;96308.25;1026878;28;20017;-69
2022/05/19 00:23:56;;;;;;;;;;;;;;;12.70;100.00;96301.66;1027225;28;20420;-69
2022/05/19 00:24:28;;;;;;;;;;;;;;;12.67;100.00;96307.44;1027532;28;19965;-68
2022/05/19 00:24:59;;;;;;;;;;;;;;;12.66;100.00;96308.50;1035144;28;19910;-68
2022/05/19 00:25:30;;;;;;;;;;;;;;;12.62;100.00;96302.97;1039795;28;19921;-69
2022/05/19 00:26:00;;;;;;;;;;;;;;;12.62;100.00;96307.44;1043119;28;19956;-70
2022/05/19 00:26:31;;;;;;;;;;;;;;;12.61;100.00;96311.09;1039138;28;19913;-70
2022/05/19 00:27:01;;;;;;;;;;;;;;;12.60;100.00;96304.25;1035545;28;19924;-69
2022/05/19 00:27:31;;;;;;;;;;;;;;;12.61;100.00;96305.84;1030919;28;19914;-69
2022/05/19 00:28:05;;;;;;;;;;;;;;;12.58;100.00;96306.38;1031517;28;19917;-69
2022/05/19 00:28:35;;;;;;;;;;;;;;;12.60;100.00;96304.25;1035791;28;19924;-69
2022/05/19 00:29:06;;;;;;;;;;;;;;;12.58;100.00;96303.75;1035460;28;19914;-69
2022/05/19 00:29:36;;;;;;;;;;;;;;;12.59;100.00;96310.59;1034950;28;19917;-68
2022/05/19 00:30:07;;;;;;;;;;;;;;;12.58;100.00;96309.03;1035000;28;19957;-69
2022/05/19 00:30:40;;;;;;;;;;;;;;;12.56;100.00;96303.22;1035223;28;19948;-71
2022/05/19 00:31:11;;;;;;;;;;;;;;;12.55;100.00;96306.91;1035807;28;19913;-71
2022/05/19 00:31:41;;;;;;;;;;;;;;;12.52;100.00;96300.31;1039146;28;20468;-68
2022/05/19 00:32:11;;;;;;;;;;;;;;;12.52;100.00;96302.16;1038649;28;20420;-69
2022/05/19 00:32:41;;;;;;;;;;;;;;;12.50;100.00;96299.78;1034833;28;19921;-69
2022/05/19 00:33:12;;;;;;;;;;;;;;;12.49;100.00;96304.25;1030980;28;19918;-69
2022/05/19 00:33:43;;;;;;;;;;;;;;;12.48;100.00;96305.31;1035378;28;20444;-69
2022/05/19 00:34:13;;;;;;;;;;;;;;;12.49;100.00;96303.47;1027062;28;20378;-69
2022/05/19 00:34:43;;;;;;;;;;;;;;;12.46;100.00;96307.41;1026989;28;19929;-71
2022/05/19 00:35:14;;;;;;;;;;;;;;;12.44;100.00;96306.06;1031311;28;20005;-70
2022/05/19 00:35:44;;;;;;;;;;;;;;;12.42;100.00;96303.72;1026956;28;19944;-68
2022/05/19 00:36:16;;;;;;;;;;;;;;;12.38;100.00;96305.28;1030809;28;19921;-68
2022/05/19 00:36:46;;;;;;;;;;;;;;;12.35;100.00;96312.91;1035220;28;19913;-69
2022/05/19 00:37:16;;;;;;;;;;;;;;;12.31;100.00;96306.56;1035113;28;20291;-68
2022/05/19 00:37:46;;;;;;;;;;;;;;;12.27;100.00;96307.09;1035073;28;19924;-70
2022/05/19 00:38:17;;;;;;;;;;;;;;;12.24;100.00;96317.34;1039250;28;19926;-69
2022/05/19 00:38:47;;;;;;;;;;;;;;;12.20;100.00;96313.63;1035005;28;19910;-68
2022/05/19 00:39:18;;;;;;;;;;;;;;;12.18;100.00;96315.75;1034871;28;19922;-68
2022/05/19 00:39:48;;;;;;;;;;;;;;;12.16;100.00;96307.31;1034380;28;19964;-68
2022/05/19 00:40:19;;;;;;;;;;;;;;;12.13;100.00;96319.13;1030894;28;19918;-69
2022/05/19 00:40:51;;;;;;;;;;;;;;;12.12;100.00;96320.19;1030960;28;20012;-68
2022/05/19 00:41:21;;;;;;;;;;;;;;;12.11;100.00;96318.63;1026838;28;20525;-69
2022/05/19 00:42:43;;;;;;;;;;;;;;;12.07;100.00;96316.75;1022861;28;19921;-69
2022/05/19 00:43:16;;;;;;;;;;;;;;;12.08;100.00;96313.09;1028736;28;19969;-68
2022/05/19 00:43:55;;;;;;;;;;;;;;;12.07;100.00;96316.75;1033463;28;19917;-68
2022/05/19 00:44:26;;;;;;;;;;;;;;;12.06;100.00;96312.53;1041409;28;19959;-68
2022/05/19 00:44:59;;;;;;;;;;;;;;;12.05;100.00;96313.59;1039539;28;20524;-70
2022/05/19 00:45:49;;;;;;;;;;;;;;;12.07;100.00;96319.38;1039066;28;20010;-69
2022/05/19 00:46:20;;;;;;;;;;;;;;;12.09;100.00;96314.66;1035011;28;19969;-69
2022/05/19 00:46:55;;;;;;;;;;;;;;;12.09;100.00;96310.19;1038176;28;19965;-69
2022/05/19 00:47:34;;;;;;;;;;;;;;;12.11;100.00;96323.88;1039304;28;20016;-68
2022/05/19 00:48:07;;;;;;;;;;;;;;;12.09;100.00;96319.91;1033111;28;19956;-68
2022/05/19 00:48:54;;;;;;;;;;;;;;;12.10;100.00;96318.88;1030976;28;19963;-68
2022/05/19 00:49:24;;;;;;;;;;;;;;;12.06;100.00;96315.16;1030743;28;20635;-68
2022/05/19 00:49:54;;;;;;;;;;;;;;;12.03;100.00;96311.22;1028787;28;19957;-70
2022/05/19 00:50:26;;;;;;;;;;;;;;;12.01;100.00;96316.75;1029396;28;20441;-69
2022/05/19 00:51:02;;;;;;;;;;;;;;;11.82;100.00;96289.28;1030980;28;19924;-69
2022/05/19 00:51:49;;;;;;;;;;;;;;;11.96;100.00;96319.34;1031977;28;19918;-69
2022/05/19 00:52:22;;;;;;;;;;;;;;;11.92;100.00;96315.63;1038265;28;19932;-68
2022/05/19 00:52:53;;;;;;;;;;;;;;;11.90;100.00;96317.72;1035143;28;19912;-69
2022/05/19 00:53:23;;;;;;;;;;;;;;;11.87;100.00;96317.44;1030977;28;19914;-68
2022/05/19 00:53:54;;;;;;;;;;;;;;;11.87;100.00;96313.00;1026903;28;19994;-71
2022/05/19 00:54:26;;;;;;;;;;;;;;;11.88;100.00;96321.69;1026556;28;19918;-68
2022/05/19 00:54:59;;;;;;;;;;;;;;;11.95;100.00;96317.75;1019372;29;19923;-68
2022/05/19 00:55:32;;;;;;;;;;;;;;;11.96;100.00;96310.66;1023671;28;19922;-69
2022/05/19 00:56:03;;;;;;;;;;;;;;;11.98;100.00;96314.63;1027867;28;19945;-70
2022/05/19 00:56:38;;;;;;;;;;;;;;;12.00;100.00;96312.53;1032816;28;19953;-69
2022/05/19 00:57:10;;;;;;;;;;;;;;;11.96;100.00;96310.66;1035226;28;19921;-69
2022/05/19 00:57:41;;;;;;;;;;;;;;;11.97;100.00;96312.22;1030861;28;19969;-68
2022/05/19 00:58:15;;;;;;;;;;;;;;;11.98;100.00;96311.19;1034327;28;19964;-70
2022/05/19 00:58:50;;;;;;;;;;;;;;;11.94;100.00;96313.56;1032005;28;19926;-69
2022/05/19 00:59:31;;;;;;;;;;;;;;;11.93;100.00;96311.97;1034938;28;19925;-69
2022/05/19 01:00:06;;;;;;;;;;;;;;;11.91;100.00;96311.44;1033021;28;19917;-69
2022/05/19 01:00:36;;;;;;;;;;;;;;;11.91;100.00;96314.06;1037555;28;20346;-70
2022/05/19 01:01:07;;;;;;;;;;;;;;;11.90;100.00;96315.09;1035301;28;19921;-69
2022/05/19 01:01:40;;;;;;;;;;;;;;;11.90;100.00;96309.84;1035370;28;19918;-69
2022/05/19 01:02:11;;;;;;;;;;;;;;;11.90;100.00;96314.31;1030369;28;20028;-69
2022/05/19 01:02:52;;;;;;;;;;;;;;;11.91;100.00;96324.59;1023548;28;19924;-68
2022/05/19 01:03:22;;;;;;;;;;;;;;;11.90;100.00;96315.09;1031061;28;19913;-69
2022/05/19 01:03:59;;;;;;;;;;;;;;;11.51;100.00;96257.59;1029684;28;19918;-69
2022/05/19 01:04:30;;;;;;;;;;;;;;;11.86;100.00;96319.28;1033241;28;20016;-68
2022/05/19 01:05:04;;;;;;;;;;;;;;;11.84;100.00;96321.41;1033812;28;19918;-69
2022/05/19 01:05:38;;;;;;;;;;;;;;;11.82;100.00;96327.94;1032562;28;19918;-71
2022/05/19 01:06:16;;;;;;;;;;;;;;;11.78;100.00;96317.13;1034863;28;20347;-69
2022/05/19 01:06:46;;;;;;;;;;;;;;;11.74;100.00;96318.69;1033131;28;20282;-69
2022/05/19 01:07:20;;;;;;;;;;;;;;;11.72;100.00;96320.78;1030963;28;20585;-69
2022/05/19 01:07:53;;;;;;;;;;;;;;;11.68;100.00;96327.59;1027026;28;19920;-69
2022/05/19 01:08:34;;;;;;;;;;;;;;;11.63;100.00;96327.56;1034755;28;20318;-69
2022/05/19 01:09:06;;;;;;;;;;;;;;;11.59;100.00;96327.28;1033243;28;19980;-69
2022/05/19 01:09:37;;;;;;;;;;;;;;;11.59;100.00;96326.47;1032600;28;19924;-68
2022/05/19 01:10:07;;;;;;;;;;;;;;;11.53;100.00;96329.06;1030767;28;20392;-69
2022/05/19 01:10:38;;;;;;;;;;;;;;;11.51;100.00;96333.00;1029687;28;19914;-69
2022/05/19 01:11:08;;;;;;;;;;;;;;;11.47;100.00;96330.09;1034982;28;19909;-71
2022/05/19 01:11:38;;;;;;;;;;;;;;;11.45;100.00;96332.19;1036955;28;20380;-68
2022/05/19 01:12:09;;;;;;;;;;;;;;;11.44;100.00;96329.81;1035053;28;20377;-69
2022/05/19 01:12:39;;;;;;;;;;;;;;;11.39;100.00;96325.31;1034941;28;20048;-69
2022/05/19 01:13:11;;;;;;;;;;;;;;;11.37;100.00;96321.34;1030792;28;19964;-69
2022/05/19 01:13:42;;;;;;;;;;;;;;;11.35;100.00;96332.13;1027033;28;19914;-69
2022/05/19 01:14:12;;;;;;;;;;;;;;;11.33;100.00;96326.31;1031298;28;20710;-68
2022/05/19 01:14:43;;;;;;;;;;;;;;;11.29;100.00;96327.84;1023146;28;19926;-69
2022/05/19 01:15:14;;;;;;;;;;;;;;;11.27;100.00;96322.09;1026775;28;19925;-70
2022/05/19 01:15:44;;;;;;;;;;;;;;;11.26;100.00;96328.38;1023156;28;19915;-69
2022/05/19 01:16:15;;;;;;;;;;;;;;;11.25;100.00;96332.03;1023253;28;19918;-67
2022/05/19 01:16:45;;;;;;;;;;;;;;;11.23;100.00;96331.50;1030812;28;20274;-68
2022/05/19 01:17:15;;;;;;;;;;;;;;;11.22;100.00;96328.06;1030865;28;20009;-68
2022/05/19 01:17:46;;;;;;;;;;;;;;;11.18;100.00;96326.22;1031116;28;20575;-68
2022/05/19 01:18:16;;;;;;;;;;;;;;;11.16;100.00;96334.31;1030718;28;19913;-68
2022/05/19 01:18:46;;;;;;;;;;;;;;;11.15;100.00;96326.72;1026848;28;19910;-69
2022/05/19 01:19:23;;;;;;;;;;;;;;;11.13;100.00;96334.03;1034985;28;19913;-69
2022/05/19 01:19:55;;;;;;;;;;;;;;;11.09;100.00;96328.50;1034668;28;20908;-70
2022/05/19 01:20:25;;;;;;;;;;;;;;;11.05;100.00;96328.22;1035168;28;19953;-69
2022/05/19 01:20:56;;;;;;;;;;;;;;;11.06;100.00;96329.00;1029486;28;19920;-68
2022/05/19 01:21:27;;;;;;;;;;;;;;;11.08;100.00;96327.72;1023419;28;20300;-69
2022/05/19 01:21:57;;;;;;;;;;;;;;;11.05;100.00;96322.16;1025994;28;19925;-68
2022/05/19 01:22:33;;;;;;;;;;;;;;;11.05;100.00;96322.97;1030884;28;19914;-70
2022/05/19 01:23:06;;;;;;;;;;;;;;;11.04;100.00;96329.25;1027759;28;20688;-69
2022/05/19 01:23:43;;;;;;;;;;;;;;;11.01;100.00;96327.13;1030185;28;19914;-68
2022/05/19 01:24:17;;;;;;;;;;;;;;;11.03;100.00;96322.44;1033094;28;19996;-69
2022/05/19 01:24:52;;;;;;;;;;;;;;;11.02;100.00;96323.44;1028396;28;20432;-69
2022/05/19 01:25:29;;;;;;;;;;;;;;;10.99;100.00;96326.56;1034960;28;20280;-69
2022/05/19 01:26:20;;;;;;;;;;;;;;;10.98;100.00;96322.38;1037381;28;19917;-68
2022/05/19 01:26:51;;;;;;;;;;;;;;;10.97;100.00;96320.81;1038796;28;19940;-70
2022/05/19 01:27:21;;;;;;;;;;;;;;;10.95;100.00;96332.59;1039093;28;19913;-69
2022/05/19 01:27:52;;;;;;;;;;;;;;;10.92;100.00;96326.00;1030766;28;20335;-71
2022/05/19 01:28:22;;;;;;;;;;;;;;;10.90;100.00;96328.09;1027026;28;19929;-69
2022/05/19 01:28:52;;;;;;;;;;;;;;;10.88;100.00;96327.53;1026585;28;19918;-69
2022/05/19 01:29:24;;;;;;;;;;;;;;;10.88;100.00;96330.16;1026826;28;20217;-68
2022/05/19 01:29:54;;;;;;;;;;;;;;;10.92;100.00;96328.63;1030389;28;19977;-69
2022/05/19 01:30:25;;;;;;;;;;;;;;;10.89;100.00;96333.59;1031225;28;19989;-68
2022/05/19 01:30:55;;;;;;;;;;;;;;;10.86;100.00;96327.00;1034535;28;19917;-68
2022/05/19 01:31:26;;;;;;;;;;;;;;;10.84;100.00;96329.09;1027136;28;19913;-69
2022/05/19 01:31:57;;;;;;;;;;;;;;;10.81;100.00;96327.75;1030773;28;19921;-69
2022/05/19 01:32:28;;;;;;;;;;;;;;;10.84;100.00;96331.72;1034899;28;19921;-69
2022/05/19 01:32:58;;;;;;;;;;;;;;;10.83;100.00;96330.09;1031220;28;19918;-69
2022/05/19 01:33:29;;;;;;;;;;;;;;;10.85;100.00;96331.44;1038978;28;19925;-69
2022/05/19 01:33:59;;;;;;;;;;;;;;;10.99;100.00;96323.94;1030653;28;19918;-68
2022/05/19 01:34:30;;;;;;;;;;;;;;;11.00;100.00;96327.38;1022892;29;20805;-69
2022/05/19 01:35:01;;;;;;;;;;;;;;;11.05;100.00;96324.78;1026672;28;19918;-69
2022/05/19 01:35:34;;;;;;;;;;;;;;;11.11;100.00;96325.63;1026894;28;19918;-69
2022/05/19 01:36:04;;;;;;;;;;;;;;;11.15;100.00;96330.13;1031402;28;19957;-69
2022/05/19 01:36:35;;;;;;;;;;;;;;;11.22;100.00;96329.91;1030784;28;19922;-68
2022/05/19 01:37:05;;;;;;;;;;;;;;;11.23;100.00;96329.69;1026793;28;19946;-69
2022/05/19 01:37:35;;;;;;;;;;;;;;;11.24;100.00;96333.09;1024521;28;19969;-68
2022/05/19 01:38:23;;;;;;;;;;;;;;;11.25;100.00;96326.78;1023023;28;20005;-69
2022/05/19 01:38:58;;;;;;;;;;;;;;;11.25;100.00;96321.53;1033177;28;20533;-68
2022/05/19 01:39:29;;;;;;;;;;;;;;;11.27;100.00;96322.88;1034674;28;19929;-69
2022/05/19 01:40:01;;;;;;;;;;;;;;;11.25;100.00;96327.56;1037403;28;19943;-68
2022/05/19 01:40:35;;;;;;;;;;;;;;;11.25;100.00;96324.16;1035845;28;19918;-69
2022/05/19 01:41:09;;;;;;;;;;;;;;;11.11;100.00;96305.41;1030846;28;19957;-69
2022/05/19 01:41:48;;;;;;;;;;;;;;;11.27;100.00;96320.25;1026728;28;19918;-68
2022/05/19 01:42:19;;;;;;;;;;;;;;;11.29;100.00;96322.59;1028983;28;19914;-69
2022/05/19 01:42:58;;;;;;;;;;;;;;;11.26;100.00;96321.25;1032320;28;19906;-69
2022/05/19 01:43:30;;;;;;;;;;;;;;;11.30;100.00;96321.56;1037529;28;19953;-69
2022/05/19 01:44:06;;;;;;;;;;;;;;;11.27;100.00;96322.09;1034848;28;19917;-68
2022/05/19 01:44:48;;;;;;;;;;;;;;;11.25;100.00;96329.41;1038500;28;19917;-69
2022/05/19 01:45:37;;;;;;;;;;;;;;;11.21;100.00;96325.72;1034747;28;20025;-69
2022/05/19 01:46:26;;;;;;;;;;;;;;;11.19;100.00;96331.19;1034787;28;20405;-69
2022/05/19 01:46:58;;;;;;;;;;;;;;;11.15;100.00;96322.25;1035727;28;19909;-69
2022/05/19 01:47:29;;;;;;;;;;;;;;;11.12;100.00;96324.59;1039151;28;20003;-69
2022/05/19 01:48:04;;;;;;;;;;;;;;;11.09;100.00;96329.28;1041445;28;19913;-70
2022/05/19 01:48:38;;;;;;;;;;;;;;;11.05;100.00;96330.84;1034895;28;19914;-67
2022/05/19 01:49:17;;;;;;;;;;;;;;;11.02;100.00;96325.28;1029883;28;19940;-69
2022/05/19 01:50:02;;;;;;;;;;;;;;;10.99;100.00;96320.53;1026141;28;20451;-68
2022/05/19 01:51:11;;;;;;;;;;;;;;;10.96;100.00;96323.66;1034123;28;20218;-70
2022/05/19 01:51:50;;;;;;;;;;;;;;;10.95;100.00;96328.13;1030273;28;20064;-69
2022/05/19 01:52:35;;;;;;;;;;;;;;;10.98;100.00;96322.38;1030357;28;19965;-69
2022/05/19 01:53:08;;;;;;;;;;;;;;;10.98;100.00;96322.38;1030494;28;20480;-69
2022/05/19 01:54:00;;;;;;;;;;;;;;;10.97;100.00;96323.44;1030550;28;19917;-68
2022/05/19 01:54:33;;;;;;;;;;;;;;;10.96;100.00;96323.66;1023869;29;19934;-68
2022/05/19 01:55:05;;;;;;;;;;;;;;;10.99;100.00;96318.69;1028280;28;19914;-69
2022/05/19 01:55:41;;;;;;;;;;;;;;;10.97;100.00;96320.00;1021587;29;19915;-68
2022/05/19 01:56:18;;;;;;;;;;;;;;;10.96;100.00;96319.19;1020965;29;19957;-69
2022/05/19 01:57:07;;;;;;;;;;;;;;;10.95;100.00;96316.84;1024250;29;19911;-69
2022/05/19 01:57:56;;;;;;;;;;;;;;;10.94;100.00;96334.44;1023235;28;19925;-69
2022/05/19 01:58:28;;;;;;;;;;;;;;;10.93;100.00;96329.41;1027503;28;20005;-69
2022/05/19 01:59:14;;;;;;;;;;;;;;;10.90;100.00;96328.09;1031374;28;19914;-69
2022/05/19 01:59:49;;;;;;;;;;;;;;;10.85;100.00;96333.28;1037489;28;19917;-69
2022/05/19 02:00:20;;;;;;;;;;;;;;;10.82;100.00;96331.94;1038442;28;19936;-69
2022/05/19 02:00:51;;;;;;;;;;;;;;;10.83;100.00;96330.09;1028893;28;19957;-69
2022/05/19 02:01:24;;;;;;;;;;;;;;;10.84;100.00;96324.63;1031704;28;20379;-69
2022/05/19 02:02:05;;;;;;;;;;;;;;;10.82;100.00;96324.06;1031762;28;20103;-70
2022/05/19 02:02:41;;;;;;;;;;;;;;;10.80;100.00;96320.13;1031729;28;19947;-68
2022/05/19 02:03:33;;;;;;;;;;;;;;;10.80;100.00;96320.13;1034008;28;19968;-69
2022/05/19 02:04:07;;;;;;;;;;;;;;;10.79;100.00;96326.41;1035807;28;19914;-68
2022/05/19 02:04:39;;;;;;;;;;;;;;;10.84;100.00;96323.84;1031341;28;19918;-68
2022/05/19 02:05:13;;;;;;;;;;;;;;;10.84;100.00;96321.22;1031633;28;19910;-69
2022/05/19 02:06:01;;;;;;;;;;;;;;;10.85;100.00;96317.53;1028777;28;19918;-69
2022/05/19 02:06:32;;;;;;;;;;;;;;;10.85;100.00;96323.56;1029643;28;19922;-70
2022/05/19 02:07:03;;;;;;;;;;;;;;;10.84;100.00;96321.22;1034557;28;19952;-69
2022/05/19 02:07:34;;;;;;;;;;;;;;;10.84;100.00;96323.84;1038414;28;20466;-69
2022/05/19 02:08:05;;;;;;;;;;;;;;;10.82;100.00;96323.28;1040037;28;19913;-69
2022/05/19 02:08:41;;;;;;;;;;;;;;;10.84;100.00;96327.25;1039622;28;19917;-68
2022/05/19 02:09:15;;;;;;;;;;;;;;;10.83;100.00;96323.06;1030657;28;19913;-69
2022/05/19 02:10:09;;;;;;;;;;;;;;;10.85;100.00;96325.41;1028919;28;20463;-69
2022/05/19 02:10:41;;;;;;;;;;;;;;;10.86;100.00;96324.38;1023438;28;19919;-68
2022/05/19 02:11:13;;;;;;;;;;;;;;;10.88;100.00;96319.66;1035770;28;19941;-69
2022/05/19 02:11:46;;;;;;;;;;;;;;;10.88;100.00;96322.28;1035021;28;19913;-70
2022/05/19 02:12:17;;;;;;;;;;;;;;;10.87;100.00;96320.72;1028453;28;19918;-68
2022/05/19 02:12:47;;;;;;;;;;;;;;;10.86;100.00;96324.38;1023396;28;19918;-68
2022/05/19 02:13:17;;;;;;;;;;;;;;;10.86;100.00;96324.38;1033342;28;19921;-68
2022/05/19 02:13:47;;;;;;;;;;;;;;;10.85;100.00;96322.78;1036000;28;20493;-69
2022/05/19 02:14:19;;;;;;;;;;;;;;;10.84;100.00;96322.00;1035650;28;20367;-69
2022/05/19 02:14:50;;;;;;;;;;;;;;;10.83;100.00;96324.84;1035813;28;19941;-69
2022/05/19 02:15:21;;;;;;;;;;;;;;;10.84;100.00;96318.59;1039813;28;20410;-69
2022/05/19 02:15:52;;;;;;;;;;;;;;;10.82;100.00;96323.28;1035686;28;19914;-69
2022/05/19 02:16:22;;;;;;;;;;;;;;;10.80;100.00;96314.88;1031775;28;20312;-69
2022/05/19 02:16:53;;;;;;;;;;;;;;;10.80;100.00;96317.50;1027418;28;19922;-68
2022/05/19 02:17:23;;;;;;;;;;;;;;;10.77;100.00;96316.16;1031678;28;20467;-69
2022/05/19 02:17:54;;;;;;;;;;;;;;;10.79;100.00;96321.16;1031913;28;20540;-69
2022/05/19 02:18:24;;;;;;;;;;;;;;;10.78;100.00;96317.75;1027711;28;19914;-69
2022/05/19 02:18:54;;;;;;;;;;;;;;;10.78;100.00;96317.75;1031395;28;19910;-69
2022/05/19 02:19:26;;;;;;;;;;;;;;;10.80;100.00;96314.88;1027795;28;19957;-68
2022/05/19 02:20:03;;;;;;;;;;;;;;;10.80;100.00;96314.88;1031257;28;19992;-68
2022/05/19 02:20:33;;;;;;;;;;;;;;;10.79;100.00;96315.91;1036893;28;19913;-69
2022/05/19 02:21:03;;;;;;;;;;;;;;;10.80;100.00;96314.88;1039575;28;19917;-69
2022/05/19 02:21:33;;;;;;;;;;;;;;;10.80;100.00;96309.63;1031501;28;19948;-67
2022/05/19 02:22:04;;;;;;;;;;;;;;;10.82;100.00;96305.69;1031564;28;19961;-68
2022/05/19 02:22:38;;;;;;;;;;;;;;;10.81;100.00;96311.22;1027479;28;19918;-69
2022/05/19 02:23:08;;;;;;;;;;;;;;;10.81;100.00;96317.25;1028461;28;20613;-69
2022/05/19 02:23:40;;;;;;;;;;;;;;;10.82;100.00;96312.78;1031338;28;19914;-68
2022/05/19 02:24:10;;;;;;;;;;;;;;;10.86;100.00;96308.59;1031527;28;20522;-69
2022/05/19 02:24:42;;;;;;;;;;;;;;;10.85;100.00;96304.41;1027929;28;20022;-69
2022/05/19 02:25:20;;;;;;;;;;;;;;;10.84;100.00;96301.00;1031811;28;20022;-69
2022/05/19 02:25:54;;;;;;;;;;;;;;;10.87;100.00;96304.97;1037078;28;20454;-69
2022/05/19 02:26:25;;;;;;;;;;;;;;;10.90;100.00;96304.47;1037380;28;19922;-69
2022/05/19 02:26:55;;;;;;;;;;;;;;;10.92;100.00;96302.38;1034093;28;19917;-68
2022/05/19 02:27:36;;;;;;;;;;;;;;;10.91;100.00;96306.03;1035437;28;19913;-69
2022/05/19 02:28:29;;;;;;;;;;;;;;;10.92;100.00;96307.63;1037354;28;20036;-69
2022/05/19 02:29:01;;;;;;;;;;;;;;;10.90;100.00;96304.47;1039571;28;19917;-68
2022/05/19 02:29:31;;;;;;;;;;;;;;;10.91;100.00;96307.88;1039470;28;19925;-69
2022/05/19 02:30:03;;;;;;;;;;;;;;;10.92;100.00;96307.63;1038572;28;19921;-68
2022/05/19 02:30:34;;;;;;;;;;;;;;;10.94;100.00;96307.38;1031479;28;19914;-69
2022/05/19 02:31:05;;;;;;;;;;;;;;;10.97;100.00;96305.03;1027046;28;19918;-69
2022/05/19 02:31:35;;;;;;;;;;;;;;;10.96;100.00;96302.66;1023871;28;19918;-69
2022/05/19 02:32:06;;;;;;;;;;;;;;;10.97;100.00;96302.41;1023677;28;19915;-69
2022/05/19 02:32:37;;;;;;;;;;;;;;;10.97;100.00;96306.88;1034502;28;19921;-68
2022/05/19 02:33:07;;;;;;;;;;;;;;;10.98;100.00;96301.38;1035531;28;19913;-69
2022/05/19 02:33:38;;;;;;;;;;;;;;;10.99;100.00;96299.53;1030975;28;19918;-68
2022/05/19 02:34:08;;;;;;;;;;;;;;;10.98;100.00;96304.00;1025189;28;19966;-69
2022/05/19 02:34:38;;;;;;;;;;;;;;;11.00;100.00;96308.97;1031592;28;19960;-68
2022/05/19 02:35:08;;;;;;;;;;;;;;;11.00;100.00;96306.34;1031641;28;20486;-69
2022/05/19 02:35:39;;;;;;;;;;;;;;;10.99;100.00;96305.56;1027340;28;19914;-69
2022/05/19 02:36:10;;;;;;;;;;;;;;;11.00;100.00;96301.09;1027541;28;20384;-69
2022/05/19 02:36:40;;;;;;;;;;;;;;;10.99;100.00;96302.94;1031665;28;20008;-69
2022/05/19 02:37:10;;;;;;;;;;;;;;;10.97;100.00;96302.41;1027560;28;19914;-69
2022/05/19 02:37:40;;;;;;;;;;;;;;;10.97;100.00;96302.41;1029782;28;19985;-68
2022/05/19 02:38:11;;;;;;;;;;;;;;;11.00;100.00;96304.56;1035768;28;19920;-69
2022/05/19 02:38:41;;;;;;;;;;;;;;;11.00;100.00;96304.56;1035640;28;19925;-70
2022/05/19 02:39:12;;;;;;;;;;;;;;;11.00;100.00;96303.72;1035423;28;19918;-69
2022/05/19 02:39:42;;;;;;;;;;;;;;;10.96;100.00;96294.78;1038839;28;19917;-69
2022/05/19 02:40:13;;;;;;;;;;;;;;;10.98;100.00;96300.59;1031440;28;20407;-69
2022/05/19 02:40:44;;;;;;;;;;;;;;;10.99;100.00;96302.94;1031662;28;19952;-69
2022/05/19 02:41:14;;;;;;;;;;;;;;;10.97;100.00;96299.78;1035470;28;19922;-70
2022/05/19 02:41:44;;;;;;;;;;;;;;;10.99;100.00;96300.31;1035529;28;19964;-69
2022/05/19 02:42:15;;;;;;;;;;;;;;;10.99;100.00;96302.94;1035625;28;20326;-68
2022/05/19 02:42:45;;;;;;;;;;;;;;;10.98;100.00;96300.59;1031381;28;20009;-69
2022/05/19 02:43:15;;;;;;;;;;;;;;;10.95;100.00;96301.88;1039480;28;19975;-68
2022/05/19 02:43:45;;;;;;;;;;;;;;;10.98;100.00;96301.38;1043878;28;20416;-69
2022/05/19 02:44:16;;;;;;;;;;;;;;;10.99;100.00;96296.91;1039211;28;19921;-69
2022/05/19 02:44:46;;;;;;;;;;;;;;;10.97;100.00;96302.41;1035679;28;19952;-69
2022/05/19 02:45:17;;;;;;;;;;;;;;;10.97;100.00;96291.91;1027684;28;19950;-68
2022/05/19 02:45:47;;;;;;;;;;;;;;;10.96;100.00;96298.19;1027581;28;20295;-69
2022/05/19 02:46:18;;;;;;;;;;;;;;;10.94;100.00;96297.66;1031371;28;19930;-69
2022/05/19 02:46:48;;;;;;;;;;;;;;;10.94;100.00;96289.78;1031546;28;19918;-69
2022/05/19 02:47:18;;;;;;;;;;;;;;;10.95;100.00;96295.84;1027476;28;19925;-71
2022/05/19 02:47:49;;;;;;;;;;;;;;;10.93;100.00;96303.16;1023498;28;20430;-69
2022/05/19 02:48:20;;;;;;;;;;;;;;;10.95;100.00;96301.88;1031353;28;19996;-69
2022/05/19 02:48:50;;;;;;;;;;;;;;;10.94;100.00;96292.41;1032102;28;19906;-69
2022/05/19 02:49:21;;;;;;;;;;;;;;;10.93;100.00;96293.47;1039947;28;19921;-69